Meers, Oklahoma
Current Conditions -  °F | °C
As of 9:58 PM on Sunday 23 Nov 2014 (Local Time) from KFSI Reporting Station
Overcast Overcast  
Wind Chill: 43°   Ceiling: 11000
Heat Index: 49°   Visibility: 10mi
Dew Point: 33°   Wind: 15mph
Humidity: 55%   Direction: 310°NW
Pressure: 29.78"   Gusts: NA
Location:  34.78°N, 98.58°W
Report Text: KFSI 240358Z AUTO 31013KT 10SM OVC110 09/01 A2978 RMK AO2 SLP083 T00930007
Loading
Personal Weather Stations






























Interactive Weather Map New forecast layout! Learn more

10-Day Weather Forecast

Advertisements
Track Severe Weather on mobile